createdAt,value
2024-05-09T00:00:10.402Z,70.00
2024-05-09T00:01:08.283Z,70.12
2024-05-09T00:02:07.275Z,70.24
2024-05-09T00:03:07.515Z,70.88
2024-05-09T00:04:07.308Z,69.92
2024-05-09T00:05:07.395Z,70.03
2024-05-09T00:06:07.342Z,70.22
2024-05-09T00:07:07.246Z,68.49
2024-05-09T00:08:07.318Z,68.42
2024-05-09T00:09:07.250Z,68.41
2024-05-09T00:10:11.697Z,68.36
2024-05-09T00:11:08.370Z,68.45
2024-05-09T00:12:07.329Z,68.88
2024-05-09T00:13:07.677Z,68.57
2024-05-09T00:14:07.323Z,68.37
2024-05-09T00:15:07.267Z,70.46
2024-05-09T00:16:07.287Z,67.41
2024-05-09T00:17:07.353Z,67.72
2024-05-09T00:18:08.048Z,66.52
2024-05-09T00:19:07.361Z,67.86
2024-05-09T00:20:14.321Z,68.50
2024-05-09T00:21:08.474Z,68.57
2024-05-09T00:22:07.276Z,68.42
2024-05-09T00:23:07.846Z,69.29
2024-05-09T00:24:07.260Z,68.55
2024-05-09T00:25:07.291Z,66.87
2024-05-09T00:26:07.330Z,68.93
2024-05-09T00:27:08.361Z,67.61
2024-05-09T00:28:07.265Z,67.04
2024-05-09T00:29:07.335Z,68.31
2024-05-09T00:30:07.511Z,65.66
2024-05-09T00:31:07.292Z,66.42
2024-05-09T00:32:07.408Z,66.41
2024-05-09T00:33:08.876Z,64.41
2024-05-09T00:34:07.460Z,69.05
2024-05-09T00:35:07.335Z,67.93
2024-05-09T00:36:07.322Z,63.74
2024-05-09T00:37:07.299Z,64.76
2024-05-09T00:38:07.468Z,64.12
2024-05-09T00:39:07.298Z,63.41
2024-05-09T00:40:09.622Z,66.88
2024-05-09T00:41:08.355Z,66.89
2024-05-09T00:42:07.319Z,66.90
2024-05-09T00:43:07.316Z,66.66
2024-05-09T00:44:07.335Z,66.20
2024-05-09T00:45:07.292Z,66.38
2024-05-09T00:46:07.317Z,64.83
2024-05-09T00:47:07.669Z,65.62
2024-05-09T00:48:08.955Z,62.52
2024-05-09T00:49:07.353Z,64.57
2024-05-09T00:50:12.636Z,66.06
2024-05-09T00:51:08.383Z,66.11
2024-05-09T00:52:07.326Z,66.03
2024-05-09T00:53:07.385Z,65.71
2024-05-09T00:54:07.322Z,63.82
2024-05-09T00:55:07.333Z,64.31
2024-05-09T00:56:07.367Z,65.45
2024-05-09T00:57:07.332Z,64.72
2024-05-09T00:58:07.335Z,62.87
2024-05-09T00:59:07.376Z,63.63
2024-05-09T01:00:15.024Z,62.62
2024-05-09T01:01:08.358Z,62.70
2024-05-09T01:02:07.408Z,62.87
2024-05-09T01:03:07.955Z,62.84
2024-05-09T01:04:07.413Z,63.05
2024-05-09T01:05:07.447Z,62.97
2024-05-09T01:06:07.379Z,62.61
2024-05-09T01:07:07.342Z,62.24
2024-05-09T01:08:07.500Z,60.98
2024-05-09T01:09:07.340Z,59.78
2024-05-09T01:10:13.920Z,61.05
2024-05-09T01:11:08.487Z,61.16
2024-05-09T01:12:07.435Z,60.38
2024-05-09T01:13:07.708Z,60.34
2024-05-09T01:14:07.383Z,61.55
2024-05-09T01:15:07.368Z,62.38
2024-05-09T01:16:07.384Z,62.00
2024-05-09T01:17:07.436Z,61.65
2024-05-09T01:18:07.763Z,58.87
2024-05-09T01:19:07.516Z,57.81
2024-05-09T01:20:10.814Z,59.59
2024-05-09T01:21:08.489Z,59.65
2024-05-09T01:22:07.399Z,59.64
2024-05-09T01:23:07.626Z,59.71
2024-05-09T01:24:07.408Z,59.78
2024-05-09T01:25:07.399Z,58.75
2024-05-09T01:26:07.434Z,59.81
2024-05-09T01:27:07.407Z,58.30
2024-05-09T01:28:07.473Z,59.05
2024-05-09T01:29:07.453Z,59.75
2024-05-09T01:30:09.601Z,58.37
2024-05-09T01:31:08.403Z,58.43
2024-05-09T01:32:07.482Z,58.55
2024-05-09T01:33:09.454Z,57.17
2024-05-09T01:34:07.469Z,58.43
2024-05-09T01:35:07.443Z,58.57
2024-05-09T01:36:07.446Z,57.89
2024-05-09T01:37:07.430Z,58.00
2024-05-09T01:38:07.522Z,58.38
2024-05-09T01:39:07.435Z,57.68
2024-05-09T01:40:12.128Z,59.07
2024-05-09T01:41:08.460Z,59.16
2024-05-09T01:42:07.444Z,59.10
2024-05-09T01:43:07.729Z,59.10
2024-05-09T01:44:07.479Z,58.91
2024-05-09T01:45:07.432Z,60.09
2024-05-09T01:46:07.428Z,57.62
2024-05-09T01:47:07.484Z,56.71
2024-05-09T01:48:07.549Z,56.28
2024-05-09T01:49:07.531Z,56.24
2024-05-09T01:50:10.698Z,56.30
2024-05-09T01:51:07.627Z,57.21
2024-05-09T01:52:07.468Z,57.42
2024-05-09T01:53:07.578Z,56.68
2024-05-09T01:54:07.444Z,56.49
2024-05-09T01:55:07.449Z,55.52
2024-05-09T01:56:07.502Z,54.50
2024-05-09T01:57:07.471Z,55.13
2024-05-09T01:58:07.706Z,57.27
2024-05-09T01:59:07.522Z,55.93
2024-05-09T02:00:08.042Z,56.43
2024-05-09T02:01:07.467Z,56.96
2024-05-09T02:02:07.619Z,54.15
2024-05-09T02:03:07.730Z,55.56
2024-05-09T02:04:07.581Z,55.24
2024-05-09T02:05:07.586Z,54.40
2024-05-09T02:06:07.552Z,54.61
2024-05-09T02:07:07.470Z,55.70
2024-05-09T02:08:07.570Z,54.44
2024-05-09T02:09:07.470Z,53.59
2024-05-09T02:10:13.785Z,53.30
2024-05-09T02:11:08.537Z,53.49
2024-05-09T02:12:07.592Z,53.69
2024-05-09T02:13:07.474Z,53.94
2024-05-09T02:14:07.549Z,54.36
2024-05-09T02:15:07.486Z,53.76
2024-05-09T02:16:07.461Z,54.49
2024-05-09T02:17:07.532Z,53.79
2024-05-09T02:18:07.780Z,55.04
2024-05-09T02:19:07.543Z,50.00
2024-05-09T02:20:10.776Z,51.73
2024-05-09T02:21:08.535Z,51.88
2024-05-09T02:22:07.504Z,52.42
2024-05-09T02:23:07.642Z,52.55
2024-05-09T02:24:07.499Z,51.44
2024-05-09T02:25:07.497Z,54.38
2024-05-09T02:26:07.556Z,55.89
2024-05-09T02:27:07.516Z,53.08
2024-05-09T02:28:07.510Z,52.37
2024-05-09T02:29:07.576Z,52.41
2024-05-09T02:30:18.364Z,51.35
2024-05-09T02:31:08.531Z,51.46
2024-05-09T02:32:07.584Z,52.04
2024-05-09T02:33:08.190Z,51.86
2024-05-09T02:34:07.616Z,51.97
2024-05-09T02:35:07.592Z,54.23
2024-05-09T02:36:07.542Z,52.93
2024-05-09T02:37:07.539Z,53.50
2024-05-09T02:38:07.548Z,52.49
2024-05-09T02:39:07.548Z,52.39
2024-05-09T02:40:11.577Z,53.50
2024-05-09T02:41:08.558Z,53.54
2024-05-09T02:42:07.553Z,53.63
2024-05-09T02:43:08.157Z,53.48
2024-05-09T02:44:07.600Z,53.88
2024-05-09T02:45:07.566Z,52.44
2024-05-09T02:46:07.533Z,52.12
2024-05-09T02:47:07.656Z,54.10
2024-05-09T02:48:07.720Z,51.94
2024-05-09T02:49:07.669Z,53.57
2024-05-09T02:50:08.309Z,52.31
2024-05-09T02:51:07.608Z,52.31
2024-05-09T02:52:07.552Z,53.30
2024-05-09T02:53:07.957Z,52.69
2024-05-09T02:54:07.544Z,53.33
2024-05-09T02:55:07.545Z,52.56
2024-05-09T02:56:07.602Z,50.98
2024-05-09T02:57:07.582Z,53.66
2024-05-09T02:58:07.570Z,52.48
2024-05-09T02:59:07.587Z,50.00
2024-05-09T03:00:15.011Z,54.75
2024-05-09T03:01:08.597Z,54.76
2024-05-09T03:02:07.694Z,54.09
2024-05-09T03:03:08.225Z,54.12
2024-05-09T03:04:07.726Z,52.54
2024-05-09T03:05:07.602Z,52.66
2024-05-09T03:06:07.591Z,53.22
2024-05-09T03:07:07.598Z,50.61
2024-05-09T03:08:07.762Z,51.42
2024-05-09T03:09:07.602Z,54.65
2024-05-09T03:10:14.879Z,51.53
2024-05-09T03:11:08.756Z,51.69
2024-05-09T03:12:07.716Z,51.87
2024-05-09T03:13:07.696Z,51.93
2024-05-09T03:14:07.631Z,53.17
2024-05-09T03:15:07.614Z,54.26
2024-05-09T03:16:07.606Z,52.08
2024-05-09T03:17:07.679Z,51.81
2024-05-09T03:18:07.870Z,53.84
2024-05-09T03:19:07.731Z,53.07
2024-05-09T03:20:16.992Z,53.87
2024-05-09T03:21:08.813Z,53.93
2024-05-09T03:22:07.606Z,54.03
2024-05-09T03:23:08.484Z,54.20
2024-05-09T03:24:07.615Z,53.35
2024-05-09T03:25:07.619Z,54.69
2024-05-09T03:26:07.666Z,53.73
2024-05-09T03:27:07.648Z,52.93
2024-05-09T03:28:07.682Z,51.57
2024-05-09T03:29:07.661Z,51.68
2024-05-09T03:30:09.682Z,52.33
2024-05-09T03:31:07.640Z,53.43
2024-05-09T03:32:07.709Z,53.14
2024-05-09T03:33:07.879Z,52.13
2024-05-09T03:34:07.761Z,53.17
2024-05-09T03:35:07.667Z,52.87
2024-05-09T03:36:10.961Z,53.19
2024-05-09T03:37:07.674Z,52.85
2024-05-09T03:38:07.691Z,54.68
2024-05-09T03:39:07.645Z,56.56
2024-05-09T03:40:11.794Z,53.82
2024-05-09T03:41:08.725Z,53.90
2024-05-09T03:42:07.660Z,54.20
2024-05-09T03:43:07.668Z,54.43
2024-05-09T03:44:07.711Z,53.41
2024-05-09T03:45:07.663Z,56.38
2024-05-09T03:46:07.678Z,54.74
2024-05-09T03:47:07.721Z,54.16
2024-05-09T03:48:07.940Z,53.70
2024-05-09T03:49:07.758Z,53.89
2024-05-09T03:50:15.220Z,52.52
2024-05-09T03:51:08.779Z,52.70
2024-05-09T03:52:07.668Z,52.85
2024-05-09T03:53:07.708Z,52.40
2024-05-09T03:54:07.662Z,53.76
2024-05-09T03:55:07.654Z,53.65
2024-05-09T03:56:07.753Z,53.41
2024-05-09T03:57:07.709Z,53.14
2024-05-09T03:58:07.727Z,52.72
2024-05-09T03:59:07.719Z,50.82
2024-05-09T04:00:14.781Z,53.39
2024-05-09T04:01:08.744Z,53.45
2024-05-09T04:02:07.749Z,52.73
2024-05-09T04:03:10.230Z,53.13
2024-05-09T04:04:07.699Z,53.45
2024-05-09T04:05:07.700Z,53.58
2024-05-09T04:06:07.682Z,53.58
2024-05-09T04:07:07.729Z,52.59
2024-05-09T04:08:07.815Z,54.05
2024-05-09T04:09:07.709Z,52.96
2024-05-09T04:10:11.167Z,52.42
2024-05-09T04:11:08.752Z,52.50
2024-05-09T04:12:07.797Z,52.80
2024-05-09T04:13:07.743Z,52.57
2024-05-09T04:14:07.728Z,52.25
2024-05-09T04:15:11.232Z,53.78
2024-05-09T04:16:08.712Z,52.52
2024-05-09T04:17:07.785Z,52.61
2024-05-09T04:18:07.985Z,53.29
2024-05-09T04:19:07.842Z,53.25
2024-05-09T04:20:10.562Z,54.19
2024-05-09T04:21:07.789Z,53.22
2024-05-09T04:22:07.752Z,53.18
2024-05-09T04:23:08.798Z,51.36
2024-05-09T04:24:07.709Z,51.48
2024-05-09T04:25:07.730Z,51.36
2024-05-09T04:26:07.755Z,52.33
2024-05-09T04:27:07.740Z,51.76
2024-05-09T04:28:07.732Z,52.95
2024-05-09T04:29:07.829Z,52.66
2024-05-09T04:30:12.255Z,51.63
2024-05-09T04:31:08.731Z,51.71
2024-05-09T04:32:07.888Z,51.27
2024-05-09T04:33:09.533Z,51.67
2024-05-09T04:34:07.814Z,51.71
2024-05-09T04:35:07.790Z,51.97
2024-05-09T04:36:07.759Z,51.11
2024-05-09T04:37:07.739Z,52.20
2024-05-09T04:38:07.783Z,52.17
2024-05-09T04:39:07.746Z,53.27
2024-05-09T04:40:14.062Z,51.74
2024-05-09T04:41:08.823Z,51.86
2024-05-09T04:42:07.767Z,51.79
2024-05-09T04:43:07.800Z,52.48
2024-05-09T04:44:08.786Z,51.95
2024-05-09T04:45:07.753Z,52.22
2024-05-09T04:46:07.760Z,51.43
2024-05-09T04:47:15.314Z,50.00
2024-05-09T04:48:15.201Z,50.00
2024-05-09T04:49:15.309Z,50.00
2024-05-09T04:50:25.170Z,50.00
2024-05-09T04:51:16.131Z,50.00
2024-05-09T04:52:15.083Z,50.00
2024-05-09T04:53:15.265Z,50.00
2024-05-09T04:54:26.090Z,50.00
2024-05-09T04:55:16.081Z,50.00
2024-05-09T04:56:15.139Z,50.00
2024-05-09T04:57:15.094Z,50.00
2024-05-09T04:58:15.103Z,50.00
2024-05-09T04:59:15.111Z,50.00
2024-05-09T05:00:21.945Z,51.85
2024-05-09T05:01:16.198Z,51.95
2024-05-09T05:02:15.231Z,51.89
2024-05-09T05:03:16.332Z,52.30
2024-05-09T05:04:15.300Z,51.75
2024-05-09T05:05:15.528Z,51.97
2024-05-09T05:06:15.131Z,50.09
2024-05-09T05:07:15.106Z,50.11
2024-05-09T05:08:15.579Z,51.79
2024-05-09T05:09:15.108Z,51.96
2024-05-09T05:10:21.674Z,50.47
2024-05-09T05:11:16.207Z,50.61
2024-05-09T05:12:15.254Z,50.56
2024-05-09T05:13:15.181Z,50.51
2024-05-09T05:14:15.177Z,52.29
2024-05-09T05:15:15.146Z,52.21
2024-05-09T05:16:15.138Z,50.64
2024-05-09T05:17:15.172Z,51.70
2024-05-09T05:18:15.384Z,52.89
2024-05-09T05:19:17.540Z,51.18
2024-05-09T05:20:21.280Z,52.82
2024-05-09T05:21:16.421Z,52.89
2024-05-09T05:22:15.323Z,52.85
2024-05-09T05:23:15.737Z,53.09
2024-05-09T05:24:15.319Z,50.24
2024-05-09T05:25:15.360Z,52.05
2024-05-09T05:26:15.338Z,52.03
2024-05-09T05:27:15.330Z,50.00
2024-05-09T05:28:15.331Z,50.29
2024-05-09T05:29:17.205Z,51.62
2024-05-09T05:30:21.413Z,53.35
2024-05-09T05:31:16.434Z,53.48
2024-05-09T05:32:15.550Z,53.66
2024-05-09T05:33:15.974Z,54.24
2024-05-09T05:34:15.347Z,52.86
2024-05-09T05:35:15.384Z,53.06
2024-05-09T05:36:15.367Z,53.05
2024-05-09T05:37:15.351Z,52.02
2024-05-09T05:38:15.448Z,52.08
2024-05-09T05:39:15.366Z,53.31
2024-05-09T05:40:25.236Z,54.43
2024-05-09T05:41:16.570Z,54.49
2024-05-09T05:42:15.364Z,54.55
2024-05-09T05:43:15.361Z,54.64
2024-05-09T05:44:15.401Z,53.78
2024-05-09T05:45:15.364Z,53.31
2024-05-09T05:46:15.393Z,53.58
2024-05-09T05:47:15.443Z,52.73
2024-05-09T05:48:15.727Z,54.73
2024-05-09T05:49:15.503Z,52.49
2024-05-09T05:50:24.452Z,53.37
2024-05-09T05:51:16.616Z,53.43
2024-05-09T05:52:15.379Z,53.55
2024-05-09T05:53:15.903Z,53.85
2024-05-09T05:54:15.412Z,52.17
2024-05-09T05:55:15.389Z,52.84
2024-05-09T05:56:15.428Z,51.86
2024-05-09T05:57:15.387Z,53.71
2024-05-09T05:58:15.410Z,53.68
2024-05-09T05:59:15.772Z,53.21
2024-05-09T06:00:25.917Z,53.38
2024-05-09T06:01:16.480Z,53.44
2024-05-09T06:02:15.625Z,53.58
2024-05-09T06:03:15.526Z,53.61
2024-05-09T06:04:15.490Z,54.66
2024-05-09T06:05:15.476Z,54.29
2024-05-09T06:06:15.425Z,53.19
2024-05-09T06:07:15.427Z,53.60
2024-05-09T06:08:15.438Z,54.53
2024-05-09T06:09:15.414Z,54.07
2024-05-09T06:10:21.400Z,52.82
2024-05-09T06:11:16.501Z,52.94
2024-05-09T06:12:15.546Z,53.24
2024-05-09T06:13:15.414Z,53.69
2024-05-09T06:14:15.446Z,53.83
2024-05-09T06:15:15.427Z,54.08
2024-05-09T06:16:15.416Z,52.73
2024-05-09T06:17:15.528Z,53.24
2024-05-09T06:18:15.594Z,54.30
2024-05-09T06:19:15.483Z,54.16
2024-05-09T06:20:20.749Z,52.44
2024-05-09T06:21:16.691Z,52.60
2024-05-09T06:22:15.426Z,52.68
2024-05-09T06:23:15.513Z,53.22
2024-05-09T06:24:15.440Z,54.03
2024-05-09T06:25:15.472Z,53.78
2024-05-09T06:26:15.521Z,51.23
2024-05-09T06:27:15.435Z,52.93
2024-05-09T06:28:15.486Z,52.07
2024-05-09T06:29:15.553Z,52.52
2024-05-09T06:30:25.653Z,50.22
2024-05-09T06:31:16.478Z,50.36
2024-05-09T06:32:15.548Z,50.89
2024-05-09T06:33:16.683Z,50.94
2024-05-09T06:34:15.739Z,50.90
2024-05-09T06:35:15.548Z,49.18
2024-05-09T06:36:15.498Z,51.78
2024-05-09T06:37:15.505Z,50.17
2024-05-09T06:38:15.555Z,52.11
2024-05-09T06:39:15.490Z,50.51
2024-05-09T06:40:21.352Z,50.39
2024-05-09T06:41:16.522Z,50.51
2024-05-09T06:42:15.513Z,51.13
2024-05-09T06:43:17.697Z,50.55
2024-05-09T06:44:15.571Z,50.54
2024-05-09T06:45:15.496Z,50.86
2024-05-09T06:46:15.525Z,50.93
2024-05-09T06:47:15.674Z,52.79
2024-05-09T06:48:15.664Z,51.94
2024-05-09T06:49:15.777Z,51.75
2024-05-09T06:50:23.362Z,52.73
2024-05-09T06:51:16.677Z,52.81
2024-05-09T06:52:15.518Z,52.94
2024-05-09T06:53:15.608Z,52.72
2024-05-09T06:54:15.533Z,52.10
2024-05-09T06:55:15.538Z,51.11
2024-05-09T06:56:15.568Z,50.94
2024-05-09T06:57:15.576Z,50.67
2024-05-09T06:58:15.553Z,51.80
2024-05-09T06:59:15.580Z,52.19
2024-05-09T07:00:22.877Z,53.96
2024-05-09T07:01:16.621Z,54.04
2024-05-09T07:02:15.786Z,54.02
2024-05-09T07:03:17.653Z,54.10
2024-05-09T07:04:15.775Z,55.69
2024-05-09T07:05:15.824Z,54.96
2024-05-09T07:06:15.588Z,53.76
2024-05-09T07:07:15.567Z,50.96
2024-05-09T07:08:15.745Z,54.89
2024-05-09T07:09:15.565Z,52.35
2024-05-09T07:10:22.083Z,53.03
2024-05-09T07:11:16.662Z,53.17
2024-05-09T07:12:15.667Z,53.67
2024-05-09T07:13:15.973Z,53.92
2024-05-09T07:14:15.599Z,55.14
2024-05-09T07:15:15.569Z,56.55
2024-05-09T07:16:15.567Z,55.05
2024-05-09T07:17:15.700Z,57.06
2024-05-09T07:18:16.899Z,53.81
2024-05-09T07:19:15.912Z,55.72
2024-05-09T07:20:23.180Z,55.79
2024-05-09T07:21:16.881Z,55.89
2024-05-09T07:22:15.743Z,55.80
2024-05-09T07:23:16.148Z,56.58
2024-05-09T07:24:15.787Z,56.59
2024-05-09T07:25:15.747Z,56.16
2024-05-09T07:26:15.825Z,53.52
2024-05-09T07:27:15.745Z,54.92
2024-05-09T07:28:15.858Z,57.21
2024-05-09T07:29:15.788Z,55.29
2024-05-09T07:30:22.957Z,54.97
2024-05-09T07:31:16.749Z,55.06
2024-05-09T07:32:15.816Z,55.11
2024-05-09T07:33:16.005Z,54.56
2024-05-09T07:34:15.866Z,56.30
2024-05-09T07:35:15.823Z,55.56
2024-05-09T07:36:15.836Z,53.37
2024-05-09T07:37:15.781Z,57.59
2024-05-09T07:38:15.832Z,54.12
2024-05-09T07:39:15.763Z,55.82
2024-05-09T07:40:24.859Z,54.76
2024-05-09T07:41:16.824Z,54.82
2024-05-09T07:42:15.797Z,55.09
2024-05-09T07:43:16.023Z,55.16
2024-05-09T07:44:15.811Z,54.20
2024-05-09T07:45:38.940Z,55.76
2024-05-09T07:47:14.317Z,54.85
2024-05-09T07:48:28.951Z,55.00
2024-05-09T07:49:59.720Z,55.06
2024-05-09T07:50:56.072Z,55.14
2024-05-09T07:53:29.858Z,55.22
2024-05-09T07:53:37.928Z,55.36
2024-05-09T07:54:17.081Z,55.28
2024-05-09T07:55:16.120Z,56.64
2024-05-09T07:56:16.287Z,58.46
2024-05-09T07:57:15.922Z,59.09
2024-05-09T07:58:15.828Z,59.97
2024-05-09T07:59:15.845Z,60.75
2024-05-09T08:00:23.467Z,56.48
2024-05-09T08:01:16.953Z,56.64
2024-05-09T08:02:15.946Z,56.77
2024-05-09T08:03:16.091Z,56.81
2024-05-09T08:04:15.900Z,56.92
2024-05-09T08:05:16.040Z,56.16
2024-05-09T08:06:15.845Z,56.24
2024-05-09T08:07:15.916Z,52.88
2024-05-09T08:08:15.851Z,50.00
2024-05-09T08:09:20.814Z,49.32
2024-05-09T08:10:22.048Z,49.54
2024-05-09T08:11:17.029Z,49.49
2024-05-09T08:12:15.864Z,50.25
2024-05-09T08:13:15.965Z,50.15
2024-05-09T08:14:15.852Z,50.82
2024-05-09T08:15:15.900Z,48.64
2024-05-09T08:16:15.965Z,50.77
2024-05-09T08:17:15.918Z,50.38
2024-05-09T08:18:16.086Z,53.77
2024-05-09T08:19:15.957Z,52.26
2024-05-09T08:20:23.004Z,50.99
2024-05-09T08:21:16.896Z,51.13
2024-05-09T08:22:15.972Z,51.70
2024-05-09T08:23:15.940Z,51.77
2024-05-09T08:24:15.896Z,53.03
2024-05-09T08:25:15.981Z,49.52
2024-05-09T08:26:15.902Z,52.89
2024-05-09T08:27:15.908Z,53.10
2024-05-09T08:28:16.108Z,51.67
2024-05-09T08:29:15.924Z,52.18
2024-05-09T08:30:22.016Z,52.01
2024-05-09T08:31:16.974Z,52.12
2024-05-09T08:32:15.963Z,51.87
2024-05-09T08:33:16.117Z,52.30
2024-05-09T08:34:16.084Z,51.23
2024-05-09T08:35:15.890Z,51.30
2024-05-09T08:36:15.919Z,53.56
2024-05-09T08:37:22.124Z,53.44
2024-05-09T08:38:16.919Z,53.46
2024-05-09T08:39:15.927Z,52.23
2024-05-09T08:40:23.833Z,51.23
2024-05-09T08:41:16.926Z,53.45
2024-05-09T08:42:15.923Z,50.45
2024-05-09T08:43:16.072Z,49.75
2024-05-09T08:44:15.940Z,48.52
2024-05-09T08:45:15.947Z,48.51
2024-05-09T08:46:15.984Z,51.81
2024-05-09T08:47:15.957Z,51.54
2024-05-09T08:48:16.655Z,53.01
2024-05-09T08:49:15.991Z,50.49
2024-05-09T08:50:28.571Z,51.65
2024-05-09T08:51:16.989Z,51.80
2024-05-09T08:52:16.013Z,51.95
2024-05-09T08:53:15.963Z,52.35
2024-05-09T08:54:15.946Z,52.38
2024-05-09T08:55:15.980Z,52.82
2024-05-09T08:56:15.970Z,53.06
2024-05-09T08:57:15.960Z,52.96
2024-05-09T08:58:16.511Z,52.13
2024-05-09T08:59:15.957Z,52.19
2024-05-09T09:00:21.737Z,52.41
2024-05-09T09:01:17.076Z,52.46
2024-05-09T09:02:16.214Z,52.55
2024-05-09T09:03:16.025Z,52.67
2024-05-09T09:04:16.151Z,52.30
2024-05-09T09:05:16.227Z,53.56
2024-05-09T09:06:15.972Z,50.87
2024-05-09T09:07:15.989Z,50.00
2024-05-09T09:08:15.976Z,51.34
2024-05-09T09:09:15.987Z,50.64
2024-05-09T09:10:25.178Z,51.59
2024-05-09T09:11:17.047Z,51.75
2024-05-09T09:12:15.994Z,50.37
2024-05-09T09:13:16.193Z,48.66
2024-05-09T09:14:16.030Z,45.04
2024-05-09T09:15:15.992Z,40.63
2024-05-09T09:16:16.011Z,52.58
2024-05-09T09:17:16.101Z,53.40
2024-05-09T09:18:16.233Z,54.93
2024-05-09T09:19:16.183Z,54.87
2024-05-09T09:20:23.056Z,57.21
2024-05-09T09:21:17.052Z,57.35
2024-05-09T09:22:16.103Z,57.53
2024-05-09T09:23:16.024Z,57.31
2024-05-09T09:24:16.048Z,52.99
2024-05-09T09:25:16.086Z,48.47
2024-05-09T09:26:16.107Z,50.41
2024-05-09T09:27:16.033Z,50.17
2024-05-09T09:28:16.159Z,49.94
2024-05-09T09:29:16.054Z,50.95
2024-05-09T09:30:30.718Z,51.51
2024-05-09T09:31:17.108Z,51.53
2024-05-09T09:32:16.063Z,50.64
2024-05-09T09:33:16.163Z,52.00
2024-05-09T09:34:16.275Z,53.15
2024-05-09T09:35:16.055Z,58.19
2024-05-09T09:36:16.098Z,59.27
2024-05-09T09:37:16.158Z,61.36
2024-05-09T09:38:16.043Z,64.02
2024-05-09T09:39:16.069Z,63.47
2024-05-09T09:40:18.387Z,67.32
2024-05-09T09:41:16.137Z,67.20
2024-05-09T09:42:16.108Z,68.32
2024-05-09T09:43:16.151Z,67.09
2024-05-09T09:44:16.104Z,71.74
2024-05-09T09:45:16.127Z,69.96
2024-05-09T09:46:16.299Z,71.47
2024-05-09T09:47:16.212Z,75.88
2024-05-09T09:48:16.237Z,75.17
2024-05-09T09:49:16.318Z,74.92
2024-05-09T09:50:20.638Z,76.29
2024-05-09T09:51:17.180Z,76.36
2024-05-09T09:52:16.271Z,76.37
2024-05-09T09:53:16.173Z,77.37
2024-05-09T09:54:16.174Z,76.89
2024-05-09T09:55:16.316Z,77.19
2024-05-09T09:56:16.207Z,79.98
2024-05-09T09:57:16.186Z,78.93
2024-05-09T09:58:16.244Z,81.79
2024-05-09T09:59:16.204Z,78.06
2024-05-09T10:00:23.634Z,79.42
2024-05-09T10:01:17.402Z,79.56
2024-05-09T10:02:16.471Z,80.01
2024-05-09T10:03:16.267Z,80.99
2024-05-09T10:04:16.273Z,81.28
2024-05-09T10:05:16.304Z,82.22
2024-05-09T10:06:16.209Z,81.44
2024-05-09T10:07:16.238Z,79.65
2024-05-09T10:08:16.264Z,76.22
2024-05-09T10:09:16.207Z,76.52
2024-05-09T10:10:19.946Z,77.72
2024-05-09T10:11:17.245Z,77.81
2024-05-09T10:12:16.272Z,77.94
2024-05-09T10:13:16.484Z,78.73
2024-05-09T10:14:16.220Z,80.48
2024-05-09T10:15:16.213Z,82.18
2024-05-09T10:16:16.273Z,83.32
2024-05-09T10:17:16.236Z,81.89
2024-05-09T10:18:16.630Z,80.28
2024-05-09T10:19:16.312Z,83.58
2024-05-09T10:20:21.846Z,82.13
2024-05-09T10:21:17.225Z,82.16
2024-05-09T10:22:16.334Z,81.05
2024-05-09T10:23:16.242Z,76.42
2024-05-09T10:24:16.227Z,72.76
2024-05-09T10:25:16.292Z,73.10
2024-05-09T10:26:16.233Z,72.13
2024-05-09T10:27:16.245Z,72.23
2024-05-09T10:28:16.322Z,73.61
2024-05-09T10:29:16.294Z,74.27
2024-05-09T10:30:25.758Z,70.93
2024-05-09T10:31:17.328Z,71.17
2024-05-09T10:32:16.279Z,71.48
2024-05-09T10:33:16.291Z,72.65
2024-05-09T10:34:16.463Z,75.32
2024-05-09T10:35:16.251Z,77.31
2024-05-09T10:36:16.336Z,77.90
2024-05-09T10:37:16.323Z,74.88
2024-05-09T10:38:16.293Z,76.80
2024-05-09T10:39:16.272Z,77.45
2024-05-09T10:40:23.367Z,76.82
2024-05-09T10:41:17.319Z,76.89
2024-05-09T10:42:16.280Z,77.52
2024-05-09T10:43:16.421Z,77.39
2024-05-09T10:44:16.296Z,78.66
2024-05-09T10:45:16.306Z,79.02
2024-05-09T10:46:16.711Z,78.46
2024-05-09T10:47:16.382Z,78.06
2024-05-09T10:48:16.348Z,76.40
2024-05-09T10:49:16.437Z,79.14
2024-05-09T10:50:22.607Z,76.84
2024-05-09T10:51:17.298Z,77.00
2024-05-09T10:52:16.454Z,77.08
2024-05-09T10:53:16.317Z,77.40
2024-05-09T10:54:16.298Z,77.14
2024-05-09T10:55:16.335Z,79.37
2024-05-09T10:56:16.416Z,78.35
2024-05-09T10:57:16.338Z,78.17
2024-05-09T10:58:16.360Z,76.89
2024-05-09T10:59:16.377Z,78.91
2024-05-09T11:00:26.958Z,76.95
2024-05-09T11:01:17.494Z,77.05
2024-05-09T11:02:16.451Z,76.73
2024-05-09T11:03:16.344Z,76.89
2024-05-09T11:04:16.743Z,77.00
2024-05-09T11:05:16.529Z,74.49
2024-05-09T11:06:16.343Z,74.31
2024-05-09T11:07:16.416Z,74.85
2024-05-09T11:08:16.339Z,73.65
2024-05-09T11:09:16.345Z,74.53
2024-05-09T11:10:24.852Z,76.45
2024-05-09T11:11:17.459Z,76.57
2024-05-09T11:12:16.402Z,76.76
2024-05-09T11:13:16.481Z,77.50
2024-05-09T11:14:16.419Z,77.48
2024-05-09T11:15:16.436Z,80.16
2024-05-09T11:16:16.683Z,80.24
2024-05-09T11:17:16.435Z,81.78
2024-05-09T11:18:16.628Z,79.21
2024-05-09T11:19:16.551Z,78.73
2024-05-09T11:20:22.952Z,80.68
2024-05-09T11:21:17.425Z,80.83
2024-05-09T11:22:16.577Z,81.09
2024-05-09T11:23:16.438Z,80.78
2024-05-09T11:24:16.434Z,80.03
2024-05-09T11:25:16.482Z,80.22
2024-05-09T11:26:16.415Z,82.59
2024-05-09T11:27:16.428Z,82.18
2024-05-09T11:28:16.499Z,78.87
2024-05-09T11:29:19.432Z,80.05
2024-05-09T11:30:23.790Z,83.91
2024-05-09T11:31:17.713Z,83.98
2024-05-09T11:32:16.573Z,82.99
2024-05-09T11:33:16.498Z,83.39
2024-05-09T11:34:16.691Z,84.63
2024-05-09T11:35:16.444Z,83.44
2024-05-09T11:36:16.479Z,84.41
2024-05-09T11:37:16.577Z,83.86
2024-05-09T11:38:16.468Z,84.62
2024-05-09T11:39:16.557Z,85.32
2024-05-09T11:40:21.557Z,83.13
2024-05-09T11:41:17.470Z,83.30
2024-05-09T11:42:16.473Z,83.30
2024-05-09T11:43:16.676Z,83.91
2024-05-09T11:44:16.481Z,84.76
2024-05-09T11:45:16.545Z,86.03
2024-05-09T11:46:16.707Z,85.87
2024-05-09T11:47:16.559Z,85.00
2024-05-09T11:48:16.578Z,88.48
2024-05-09T11:49:16.766Z,88.51
2024-05-09T11:50:26.664Z,88.71
2024-05-09T11:51:17.585Z,88.78
2024-05-09T11:52:16.684Z,88.59
2024-05-09T11:53:16.576Z,89.26
2024-05-09T11:54:16.579Z,88.93
2024-05-09T11:55:16.817Z,86.40
2024-05-09T11:56:16.561Z,87.24
2024-05-09T11:57:16.573Z,87.93
2024-05-09T11:58:16.674Z,88.62
2024-05-09T11:59:16.583Z,85.05
2024-05-09T12:00:24.591Z,85.77
2024-05-09T12:01:17.682Z,85.80
2024-05-09T12:02:16.971Z,85.82
2024-05-09T12:03:16.683Z,83.17
2024-05-09T12:04:16.913Z,82.78
2024-05-09T12:05:16.910Z,82.25
2024-05-09T12:06:16.733Z,83.10
2024-05-09T12:07:16.822Z,80.13
2024-05-09T12:08:16.691Z,80.27
2024-05-09T12:09:16.645Z,81.69
2024-05-09T12:10:22.176Z,79.78
2024-05-09T12:11:17.755Z,79.92
2024-05-09T12:12:16.726Z,80.17
2024-05-09T12:13:16.880Z,79.81
2024-05-09T12:14:16.719Z,77.57
2024-05-09T12:15:17.025Z,77.52
2024-05-09T12:16:17.005Z,76.96
2024-05-09T12:17:16.847Z,76.98
2024-05-09T12:18:16.778Z,77.26
2024-05-09T12:19:16.815Z,74.60
2024-05-09T12:20:25.031Z,71.67
2024-05-09T12:21:17.767Z,67.70
2024-05-09T12:22:16.956Z,62.98
2024-05-09T12:23:16.754Z,64.63
2024-05-09T12:24:18.585Z,63.12
2024-05-09T12:25:16.843Z,63.28
2024-05-09T12:26:16.761Z,65.79
2024-05-09T12:27:16.766Z,69.01
2024-05-09T12:28:16.959Z,69.94
2024-05-09T12:29:16.767Z,67.87
2024-05-09T12:30:24.696Z,66.00
2024-05-09T12:31:17.840Z,65.30
2024-05-09T12:32:16.870Z,62.56
2024-05-09T12:33:17.051Z,63.66
2024-05-09T12:34:16.950Z,61.59
2024-05-09T12:35:16.820Z,64.72
2024-05-09T12:36:16.847Z,65.02
2024-05-09T12:37:16.908Z,68.80
2024-05-09T12:38:16.823Z,69.39
2024-05-09T12:39:16.825Z,70.73
2024-05-09T12:40:26.202Z,68.60
2024-05-09T12:41:17.842Z,68.70
2024-05-09T12:42:26.530Z,69.04
2024-05-09T12:43:17.954Z,68.64
2024-05-09T12:44:16.850Z,68.86
2024-05-09T12:45:16.862Z,67.53
2024-05-09T12:46:16.904Z,69.17
2024-05-09T12:47:16.915Z,68.93
2024-05-09T12:48:17.047Z,69.64
2024-05-09T12:49:19.277Z,70.11
2024-05-09T12:50:25.073Z,70.02
2024-05-09T12:51:17.861Z,70.07
2024-05-09T12:52:16.979Z,70.14
2024-05-09T12:53:16.854Z,68.18
2024-05-09T12:54:16.891Z,68.92